sensor_id;sensor_type;location;lat;lon;timestamp;temperature;humidity
8412;HTU21D;4243;49.296;11.348;2023-06-04T00:01:32;13.00;99.90
8412;HTU21D;4243;49.296;11.348;2023-06-04T00:01:32;12.93;43.98
8412;HTU21D;4243;49.296;11.348;2023-06-04T00:04:00;12.90;44.05
8412;HTU21D;4243;49.296;11.348;2023-06-04T00:06:27;12.87;44.16
8412;HTU21D;4243;49.296;11.348;2023-06-04T00:08:55;12.86;44.32
8412;HTU21D;4243;49.296;11.348;2023-06-04T00:11:22;13.00;99.90
8412;HTU21D;4243;49.296;11.348;2023-06-04T00:11:23;12.84;44.48
8412;HTU21D;4243;49.296;11.348;2023-06-04T00:13:50;12.81;44.32
8412;HTU21D;4243;49.296;11.348;2023-06-04T00:16:18;12.76;44.57
8412;HTU21D;4243;49.296;11.348;2023-06-04T00:18:45;12.72;44.90
8412;HTU21D;4243;49.296;11.348;2023-06-04T00:21:13;12.65;44.90
8412;HTU21D;4243;49.296;11.348;2023-06-04T00:23:41;12.65;45.03
8412;HTU21D;4243;49.296;11.348;2023-06-04T00:26:08;12.70;99.90
8412;HTU21D;4243;49.296;11.348;2023-06-04T00:26:09;12.58;45.54
8412;HTU21D;4243;49.296;11.348;2023-06-04T00:28:36;12.58;45.36
8412;HTU21D;4243;49.296;11.348;2023-06-04T00:31:05;12.57;45.57
8412;HTU21D;4243;49.296;11.348;2023-06-04T00:31:05;12.70;99.90
8412;HTU21D;4243;49.296;11.348;2023-06-04T00:33:33;12.51;45.48
8412;HTU21D;4243;49.296;11.348;2023-06-04T00:36:02;12.47;46.29
8412;HTU21D;4243;49.296;11.348;2023-06-04T00:38:30;12.43;46.15
8412;HTU21D;4243;49.296;11.348;2023-06-04T00:40:57;12.41;46.49
8412;HTU21D;4243;49.296;11.348;2023-06-04T00:43:24;12.36;46.31
8412;HTU21D;4243;49.296;11.348;2023-06-04T00:43:24;12.40;99.90
8412;HTU21D;4243;49.296;11.348;2023-06-04T00:45:54;12.31;46.64
8412;HTU21D;4243;49.296;11.348;2023-06-04T00:45:54;12.40;99.90
8412;HTU21D;4243;49.296;11.348;2023-06-04T00:48:22;12.41;45.98
8412;HTU21D;4243;49.296;11.348;2023-06-04T00:50:50;12.50;99.90
8412;HTU21D;4243;49.296;11.348;2023-06-04T00:50:51;12.38;46.28
8412;HTU21D;4243;49.296;11.348;2023-06-04T00:53:19;12.21;47.24
8412;HTU21D;4243;49.296;11.348;2023-06-04T00:55:47;12.16;47.48
8412;HTU21D;4243;49.296;11.348;2023-06-04T00:58:14;12.20;46.82
8412;HTU21D;4243;49.296;11.348;2023-06-04T00:58:14;12.30;99.90
8412;HTU21D;4243;49.296;11.348;2023-06-04T01:00:45;12.40;99.90
8412;HTU21D;4243;49.296;11.348;2023-06-04T01:00:45;12.15;47.18
8412;HTU21D;4243;49.296;11.348;2023-06-04T01:03:18;12.30;99.90
8412;HTU21D;4243;49.296;11.348;2023-06-04T01:03:19;12.05;47.65
8412;HTU21D;4243;49.296;11.348;2023-06-04T01:05:55;12.20;99.90
8412;HTU21D;4243;49.296;11.348;2023-06-04T01:06:00;12.01;47.67
8412;HTU21D;4243;49.296;11.348;2023-06-04T01:08:31;12.00;47.83
8412;HTU21D;4243;49.296;11.348;2023-06-04T01:10:59;12.00;48.14
8412;HTU21D;4243;49.296;11.348;2023-06-04T01:13:27;11.98;48.05
8412;HTU21D;4243;49.296;11.348;2023-06-04T01:15:54;11.90;48.12
8412;HTU21D;4243;49.296;11.348;2023-06-04T01:15:54;12.00;99.90
8412;HTU21D;4243;49.296;11.348;2023-06-04T01:18:26;12.00;99.90
8412;HTU21D;4243;49.296;11.348;2023-06-04T01:18:27;11.94;48.26
8412;HTU21D;4243;49.296;11.348;2023-06-04T01:21:02;11.96;48.10
8412;HTU21D;4243;49.296;11.348;2023-06-04T01:23:44;12.00;99.90
8412;HTU21D;4243;49.296;11.348;2023-06-04T01:23:46;11.87;48.33
8412;HTU21D;4243;49.296;11.348;2023-06-04T01:26:31;12.00;99.90
8412;HTU21D;4243;49.296;11.348;2023-06-04T01:26:31;11.86;48.48
8412;HTU21D;4243;49.296;11.348;2023-06-04T01:28:59;12.00;99.90
8412;HTU21D;4243;49.296;11.348;2023-06-04T01:29:00;11.79;49.26
8412;HTU21D;4243;49.296;11.348;2023-06-04T01:31:28;11.90;99.90
8412;HTU21D;4243;49.296;11.348;2023-06-04T01:31:28;11.82;48.79
8412;HTU21D;4243;49.296;11.348;2023-06-04T01:33:59;11.77;48.94
8412;HTU21D;4243;49.296;11.348;2023-06-04T01:33:59;11.90;99.90
8412;HTU21D;4243;49.296;11.348;2023-06-04T01:36:27;11.82;48.79
8412;HTU21D;4243;49.296;11.348;2023-06-04T01:38:54;11.74;49.14
8412;HTU21D;4243;49.296;11.348;2023-06-04T01:38:54;11.90;99.90
8412;HTU21D;4243;49.296;11.348;2023-06-04T01:41:21;11.80;99.90
8412;HTU21D;4243;49.296;11.348;2023-06-04T01:41:21;11.71;49.71
8412;HTU21D;4243;49.296;11.348;2023-06-04T01:43:49;11.60;50.12
8412;HTU21D;4243;49.296;11.348;2023-06-04T01:46:16;11.60;99.90
8412;HTU21D;4243;49.296;11.348;2023-06-04T01:46:16;11.55;50.38
8412;HTU21D;4243;49.296;11.348;2023-06-04T01:48:44;11.51;51.50
8412;HTU21D;4243;49.296;11.348;2023-06-04T01:51:11;11.40;50.50
8412;HTU21D;4243;49.296;11.348;2023-06-04T01:53:39;11.37;50.91
8412;HTU21D;4243;49.296;11.348;2023-06-04T01:56:07;11.33;51.11
8412;HTU21D;4243;49.296;11.348;2023-06-04T01:58:42;11.36;50.85
8412;HTU21D;4243;49.296;11.348;2023-06-04T02:01:10;11.28;51.36
8412;HTU21D;4243;49.296;11.348;2023-06-04T02:03:37;11.19;51.92
8412;HTU21D;4243;49.296;11.348;2023-06-04T02:06:04;11.20;99.90
8412;HTU21D;4243;49.296;11.348;2023-06-04T02:06:05;11.13;51.91
8412;HTU21D;4243;49.296;11.348;2023-06-04T02:08:36;11.07;52.69
8412;HTU21D;4243;49.296;11.348;2023-06-04T02:11:03;11.10;99.90
8412;HTU21D;4243;49.296;11.348;2023-06-04T02:11:03;11.00;52.72
8412;HTU21D;4243;49.296;11.348;2023-06-04T02:13:31;11.02;52.54
8412;HTU21D;4243;49.296;11.348;2023-06-04T02:15:58;11.08;52.45
8412;HTU21D;4243;49.296;11.348;2023-06-04T02:18:25;11.20;99.90
8412;HTU21D;4243;49.296;11.348;2023-06-04T02:18:25;11.04;52.59
8412;HTU21D;4243;49.296;11.348;2023-06-04T02:20:53;10.95;53.04
8412;HTU21D;4243;49.296;11.348;2023-06-04T02:23:20;10.90;53.14
8412;HTU21D;4243;49.296;11.348;2023-06-04T02:25:48;10.88;53.21
8412;HTU21D;4243;49.296;11.348;2023-06-04T02:25:48;10.90;99.90
8412;HTU21D;4243;49.296;11.348;2023-06-04T02:28:17;10.80;54.15
8412;HTU21D;4243;49.296;11.348;2023-06-04T02:30:44;10.80;99.90
8412;HTU21D;4243;49.296;11.348;2023-06-04T02:30:45;10.74;54.59
8412;HTU21D;4243;49.296;11.348;2023-06-04T02:33:16;10.68;54.45
8412;HTU21D;4243;49.296;11.348;2023-06-04T02:35:43;10.59;55.21
8412;HTU21D;4243;49.296;11.348;2023-06-04T02:35:43;10.60;99.90
8412;HTU21D;4243;49.296;11.348;2023-06-04T02:38:12;10.57;55.05
8412;HTU21D;4243;49.296;11.348;2023-06-04T02:40:39;10.51;55.97
8412;HTU21D;4243;49.296;11.348;2023-06-04T02:43:07;10.40;56.23
8412;HTU21D;4243;49.296;11.348;2023-06-04T02:45:35;10.33;56.57
8412;HTU21D;4243;49.296;11.348;2023-06-04T02:48:02;10.33;56.40
8412;HTU21D;4243;49.296;11.348;2023-06-04T02:50:30;10.23;57.19
8412;HTU21D;4243;49.296;11.348;2023-06-04T02:52:57;10.16;58.09
8412;HTU21D;4243;49.296;11.348;2023-06-04T02:55:25;10.09;58.71
8412;HTU21D;4243;49.296;11.348;2023-06-04T02:57:53;10.03;58.10
8412;HTU21D;4243;49.296;11.348;2023-06-04T03:00:20;9.94;58.54
8412;HTU21D;4243;49.296;11.348;2023-06-04T03:02:48;9.88;58.57
8412;HTU21D;4243;49.296;11.348;2023-06-04T03:05:16;9.84;59.03
8412;HTU21D;4243;49.296;11.348;2023-06-04T03:07:46;9.60;99.90
8412;HTU21D;4243;49.296;11.348;2023-06-04T03:07:46;9.78;59.86
8412;HTU21D;4243;49.296;11.348;2023-06-04T03:10:14;9.50;99.90
8412;HTU21D;4243;49.296;11.348;2023-06-04T03:10:15;9.71;60.04
8412;HTU21D;4243;49.296;11.348;2023-06-04T03:12:43;9.65;60.61
8412;HTU21D;4243;49.296;11.348;2023-06-04T03:15:11;9.64;60.73
8412;HTU21D;4243;49.296;11.348;2023-06-04T03:17:39;9.62;60.76
8412;HTU21D;4243;49.296;11.348;2023-06-04T03:20:07;9.56;61.10
8412;HTU21D;4243;49.296;11.348;2023-06-04T03:20:07;9.50;99.90
8412;HTU21D;4243;49.296;11.348;2023-06-04T03:22:36;9.54;61.94
8412;HTU21D;4243;49.296;11.348;2023-06-04T03:25:03;9.60;99.90
8412;HTU21D;4243;49.296;11.348;2023-06-04T03:25:04;9.54;61.70
8412;HTU21D;4243;49.296;11.348;2023-06-04T03:27:33;9.52;62.28
8412;HTU21D;4243;49.296;11.348;2023-06-04T03:30:01;9.50;99.90
8412;HTU21D;4243;49.296;11.348;2023-06-04T03:30:02;9.50;62.18
8412;HTU21D;4243;49.296;11.348;2023-06-04T03:32:39;9.52;61.98
8412;HTU21D;4243;49.296;11.348;2023-06-04T03:35:08;9.51;62.36
8412;HTU21D;4243;49.296;11.348;2023-06-04T03:37:35;9.50;63.18
8412;HTU21D;4243;49.296;11.348;2023-06-04T03:40:04;9.52;63.67
8412;HTU21D;4243;49.296;11.348;2023-06-04T03:42:35;9.52;63.25
8412;HTU21D;4243;49.296;11.348;2023-06-04T03:45:03;9.53;64.12
8412;HTU21D;4243;49.296;11.348;2023-06-04T03:47:33;9.52;64.11
8412;HTU21D;4243;49.296;11.348;2023-06-04T03:50:02;9.54;64.35
8412;HTU21D;4243;49.296;11.348;2023-06-04T03:52:29;9.70;99.90
8412;HTU21D;4243;49.296;11.348;2023-06-04T03:52:29;9.55;63.48
8412;HTU21D;4243;49.296;11.348;2023-06-04T03:54:59;9.66;63.22
8412;HTU21D;4243;49.296;11.348;2023-06-04T03:57:28;9.90;99.90
8412;HTU21D;4243;49.296;11.348;2023-06-04T03:57:28;9.75;63.13
8412;HTU21D;4243;49.296;11.348;2023-06-04T03:59:55;9.82;63.44
8412;HTU21D;4243;49.296;11.348;2023-06-04T04:02:23;9.89;62.84
8412;HTU21D;4243;49.296;11.348;2023-06-04T04:04:51;9.96;62.89
8412;HTU21D;4243;49.296;11.348;2023-06-04T04:07:21;10.00;99.90
8412;HTU21D;4243;49.296;11.348;2023-06-04T04:07:22;10.04;63.59
8412;HTU21D;4243;49.296;11.348;2023-06-04T04:09:51;10.09;62.71
8412;HTU21D;4243;49.296;11.348;2023-06-04T04:09:51;10.10;99.90
8412;HTU21D;4243;49.296;11.348;2023-06-04T04:12:20;10.16;62.27
8412;HTU21D;4243;49.296;11.348;2023-06-04T04:14:49;10.23;62.47
8412;HTU21D;4243;49.296;11.348;2023-06-04T04:17:17;10.33;62.18
8412;HTU21D;4243;49.296;11.348;2023-06-04T04:19:45;10.38;62.27
8412;HTU21D;4243;49.296;11.348;2023-06-04T04:22:11;10.50;99.90
8412;HTU21D;4243;49.296;11.348;2023-06-04T04:22:12;10.44;62.10
8412;HTU21D;4243;49.296;11.348;2023-06-04T04:24:40;10.54;61.45
8412;HTU21D;4243;49.296;11.348;2023-06-04T04:27:08;10.62;61.60
8412;HTU21D;4243;49.296;11.348;2023-06-04T04:29:38;10.60;99.90
8412;HTU21D;4243;49.296;11.348;2023-06-04T04:29:38;10.71;61.49
8412;HTU21D;4243;49.296;11.348;2023-06-04T04:32:06;10.80;61.73
8412;HTU21D;4243;49.296;11.348;2023-06-04T04:32:06;10.70;99.90
8412;HTU21D;4243;49.296;11.348;2023-06-04T04:34:50;10.70;99.90
8412;HTU21D;4243;49.296;11.348;2023-06-04T04:34:51;10.86;61.87
8412;HTU21D;4243;49.296;11.348;2023-06-04T04:37:22;10.90;99.90
8412;HTU21D;4243;49.296;11.348;2023-06-04T04:37:23;10.93;60.85
8412;HTU21D;4243;49.296;11.348;2023-06-04T04:39:54;11.02;61.38
8412;HTU21D;4243;49.296;11.348;2023-06-04T04:42:23;11.11;62.06
8412;HTU21D;4243;49.296;11.348;2023-06-04T04:44:50;11.00;99.90
8412;HTU21D;4243;49.296;11.348;2023-06-04T04:44:50;11.17;61.84
8412;HTU21D;4243;49.296;11.348;2023-06-04T04:47:21;11.22;60.31
8412;HTU21D;4243;49.296;11.348;2023-06-04T04:49:49;11.26;60.35
8412;HTU21D;4243;49.296;11.348;2023-06-04T04:52:17;11.33;59.34
8412;HTU21D;4243;49.296;11.348;2023-06-04T04:54:46;11.48;58.79
8412;HTU21D;4243;49.296;11.348;2023-06-04T04:57:14;11.58;59.05
8412;HTU21D;4243;49.296;11.348;2023-06-04T04:59:46;11.69;58.60
8412;HTU21D;4243;49.296;11.348;2023-06-04T05:02:14;11.74;58.88
8412;HTU21D;4243;49.296;11.348;2023-06-04T05:04:41;11.70;99.90
8412;HTU21D;4243;49.296;11.348;2023-06-04T05:04:42;11.83;58.94
8412;HTU21D;4243;49.296;11.348;2023-06-04T05:07:10;11.92;58.63
8412;HTU21D;4243;49.296;11.348;2023-06-04T05:07:10;11.80;99.90
8412;HTU21D;4243;49.296;11.348;2023-06-04T05:09:37;12.04;59.35
8412;HTU21D;4243;49.296;11.348;2023-06-04T05:12:05;12.14;57.47
8412;HTU21D;4243;49.296;11.348;2023-06-04T05:14:33;12.27;58.13
8412;HTU21D;4243;49.296;11.348;2023-06-04T05:14:33;12.20;99.90
8412;HTU21D;4243;49.296;11.348;2023-06-04T05:17:03;12.40;57.89
8412;HTU21D;4243;49.296;11.348;2023-06-04T05:19:30;12.51;58.25
8412;HTU21D;4243;49.296;11.348;2023-06-04T05:19:30;12.40;99.90
8412;HTU21D;4243;49.296;11.348;2023-06-04T05:22:01;12.64;57.31
8412;HTU21D;4243;49.296;11.348;2023-06-04T05:24:29;12.78;56.76
8412;HTU21D;4243;49.296;11.348;2023-06-04T05:27:00;12.90;99.90
8412;HTU21D;4243;49.296;11.348;2023-06-04T05:27:00;12.96;57.25
8412;HTU21D;4243;49.296;11.348;2023-06-04T05:29:31;13.18;55.91
8412;HTU21D;4243;49.296;11.348;2023-06-04T05:31:58;13.41;54.16
8412;HTU21D;4243;49.296;11.348;2023-06-04T05:34:26;13.71;54.80
8412;HTU21D;4243;49.296;11.348;2023-06-04T05:36:54;13.90;99.90
8412;HTU21D;4243;49.296;11.348;2023-06-04T05:36:54;14.01;53.92
8412;HTU21D;4243;49.296;11.348;2023-06-04T05:39:24;14.35;54.95
8412;HTU21D;4243;49.296;11.348;2023-06-04T05:41:58;14.52;51.76
8412;HTU21D;4243;49.296;11.348;2023-06-04T05:44:25;14.72;53.15
8412;HTU21D;4243;49.296;11.348;2023-06-04T05:46:53;15.02;52.61
8412;HTU21D;4243;49.296;11.348;2023-06-04T05:49:20;15.10;99.90
8412;HTU21D;4243;49.296;11.348;2023-06-04T05:49:21;15.26;51.41
8412;HTU21D;4243;49.296;11.348;2023-06-04T05:51:52;15.47;50.43
8412;HTU21D;4243;49.296;11.348;2023-06-04T05:54:20;15.53;48.70
8412;HTU21D;4243;49.296;11.348;2023-06-04T05:56:49;15.51;49.04
8412;HTU21D;4243;49.296;11.348;2023-06-04T05:59:17;15.69;50.01
8412;HTU21D;4243;49.296;11.348;2023-06-04T06:01:44;15.82;49.32
8412;HTU21D;4243;49.296;11.348;2023-06-04T06:04:12;15.99;49.11
8412;HTU21D;4243;49.296;11.348;2023-06-04T06:06:41;15.50;99.90
8412;HTU21D;4243;49.296;11.348;2023-06-04T06:06:42;16.11;48.31
8412;HTU21D;4243;49.296;11.348;2023-06-04T06:09:11;16.19;48.36
8412;HTU21D;4243;49.296;11.348;2023-06-04T06:11:38;16.19;47.54
8412;HTU21D;4243;49.296;11.348;2023-06-04T06:14:06;16.21;47.63
8412;HTU21D;4243;49.296;11.348;2023-06-04T06:16:35;16.17;49.23
8412;HTU21D;4243;49.296;11.348;2023-06-04T06:19:03;16.21;50.56
8412;HTU21D;4243;49.296;11.348;2023-06-04T06:21:31;16.26;49.43
8412;HTU21D;4243;49.296;11.348;2023-06-04T06:23:59;16.34;50.43
8412;HTU21D;4243;49.296;11.348;2023-06-04T06:26:27;16.36;48.29
8412;HTU21D;4243;49.296;11.348;2023-06-04T06:28:57;16.41;48.21
8412;HTU21D;4243;49.296;11.348;2023-06-04T06:31:29;16.48;48.20
8412;HTU21D;4243;49.296;11.348;2023-06-04T06:33:57;16.49;47.72
8412;HTU21D;4243;49.296;11.348;2023-06-04T06:36:24;16.60;49.09
8412;HTU21D;4243;49.296;11.348;2023-06-04T06:36:24;16.00;99.90
8412;HTU21D;4243;49.296;11.348;2023-06-04T06:38:51;16.76;52.41
8412;HTU21D;4243;49.296;11.348;2023-06-04T06:41:19;16.96;49.05
8412;HTU21D;4243;49.296;11.348;2023-06-04T06:43:48;17.18;48.72
8412;HTU21D;4243;49.296;11.348;2023-06-04T06:46:16;17.38;49.37
8412;HTU21D;4243;49.296;11.348;2023-06-04T06:46:16;17.20;99.90
8412;HTU21D;4243;49.296;11.348;2023-06-04T06:48:43;17.59;48.76
8412;HTU21D;4243;49.296;11.348;2023-06-04T06:48:43;17.30;99.90
8412;HTU21D;4243;49.296;11.348;2023-06-04T06:51:12;17.77;47.14
8412;HTU21D;4243;49.296;11.348;2023-06-04T06:53:40;17.93;45.43
8412;HTU21D;4243;49.296;11.348;2023-06-04T06:56:07;17.97;44.83
8412;HTU21D;4243;49.296;11.348;2023-06-04T06:58:35;18.08;44.74
8412;HTU21D;4243;49.296;11.348;2023-06-04T07:01:02;18.13;46.28
8412;HTU21D;4243;49.296;11.348;2023-06-04T07:01:02;17.40;99.90
8412;HTU21D;4243;49.296;11.348;2023-06-04T07:03:30;18.27;47.71
8412;HTU21D;4243;49.296;11.348;2023-06-04T07:05:58;18.43;44.16
8412;HTU21D;4243;49.296;11.348;2023-06-04T07:08:26;18.54;43.10
8412;HTU21D;4243;49.296;11.348;2023-06-04T07:10:53;17.70;99.90
8412;HTU21D;4243;49.296;11.348;2023-06-04T07:10:53;18.53;43.43
8412;HTU21D;4243;49.296;11.348;2023-06-04T07:13:20;18.65;44.27
8412;HTU21D;4243;49.296;11.348;2023-06-04T07:15:48;18.76;43.49
8412;HTU21D;4243;49.296;11.348;2023-06-04T07:18:16;18.89;45.19
8412;HTU21D;4243;49.296;11.348;2023-06-04T07:20:43;19.09;43.80
8412;HTU21D;4243;49.296;11.348;2023-06-04T07:23:11;19.17;41.43
8412;HTU21D;4243;49.296;11.348;2023-06-04T07:25:39;19.29;42.59
8412;HTU21D;4243;49.296;11.348;2023-06-04T07:28:06;19.43;43.57
8412;HTU21D;4243;49.296;11.348;2023-06-04T07:30:34;19.75;41.69
8412;HTU21D;4243;49.296;11.348;2023-06-04T07:33:03;20.14;41.29
8412;HTU21D;4243;49.296;11.348;2023-06-04T07:35:30;20.81;41.01
8412;HTU21D;4243;49.296;11.348;2023-06-04T07:37:58;21.58;39.85
8412;HTU21D;4243;49.296;11.348;2023-06-04T07:40:25;22.16;36.11
8412;HTU21D;4243;49.296;11.348;2023-06-04T07:42:53;22.94;35.33
8412;HTU21D;4243;49.296;11.348;2023-06-04T07:45:21;23.86;33.98
8412;HTU21D;4243;49.296;11.348;2023-06-04T07:47:48;20.70;99.90
8412;HTU21D;4243;49.296;11.348;2023-06-04T07:47:48;24.84;29.11
8412;HTU21D;4243;49.296;11.348;2023-06-04T07:50:15;20.90;99.90
8412;HTU21D;4243;49.296;11.348;2023-06-04T07:50:16;25.98;27.16
8412;HTU21D;4243;49.296;11.348;2023-06-04T07:52:43;21.20;99.90
8412;HTU21D;4243;49.296;11.348;2023-06-04T07:52:43;26.98;24.98
8412;HTU21D;4243;49.296;11.348;2023-06-04T07:55:11;27.58;21.86
8412;HTU21D;4243;49.296;11.348;2023-06-04T07:57:38;27.60;23.12
8412;HTU21D;4243;49.296;11.348;2023-06-04T08:00:06;28.32;21.28
8412;HTU21D;4243;49.296;11.348;2023-06-04T08:00:06;21.50;99.90
8412;HTU21D;4243;49.296;11.348;2023-06-04T08:03:37;29.56;20.81
8412;HTU21D;4243;49.296;11.348;2023-06-04T08:06:04;30.25;21.70
8412;HTU21D;4243;49.296;11.348;2023-06-04T08:06:04;21.90;99.90
8412;HTU21D;4243;49.296;11.348;2023-06-04T08:08:32;31.27;17.81
8412;HTU21D;4243;49.296;11.348;2023-06-04T08:08:32;22.10;99.90
8412;HTU21D;4243;49.296;11.348;2023-06-04T08:11:01;31.67;17.64
8412;HTU21D;4243;49.296;11.348;2023-06-04T08:13:28;31.72;16.47
8412;HTU21D;4243;49.296;11.348;2023-06-04T08:15:56;32.35;15.75
8412;HTU21D;4243;49.296;11.348;2023-06-04T08:18:23;23.20;99.90
8412;HTU21D;4243;49.296;11.348;2023-06-04T08:18:23;33.08;14.32
8412;HTU21D;4243;49.296;11.348;2023-06-04T08:20:50;33.15;13.64
8412;HTU21D;4243;49.296;11.348;2023-06-04T08:23:17;23.00;99.90
8412;HTU21D;4243;49.296;11.348;2023-06-04T08:23:18;33.78;12.93
8412;HTU21D;4243;49.296;11.348;2023-06-04T08:25:46;34.03;13.00
8412;HTU21D;4243;49.296;11.348;2023-06-04T08:28:15;23.50;99.90
8412;HTU21D;4243;49.296;11.348;2023-06-04T08:28:16;34.59;11.06
8412;HTU21D;4243;49.296;11.348;2023-06-04T08:30:44;23.90;99.90
8412;HTU21D;4243;49.296;11.348;2023-06-04T08:30:45;35.08;12.20
8412;HTU21D;4243;49.296;11.348;2023-06-04T08:33:12;35.00;12.82
8412;HTU21D;4243;49.296;11.348;2023-06-04T08:33:12;23.90;99.90
8412;HTU21D;4243;49.296;11.348;2023-06-04T08:35:39;34.85;11.85
8412;HTU21D;4243;49.296;11.348;2023-06-04T08:35:39;23.50;99.90
8412;HTU21D;4243;49.296;11.348;2023-06-04T08:38:07;35.11;12.81
8412;HTU21D;4243;49.296;11.348;2023-06-04T08:40:35;35.82;12.43
8412;HTU21D;4243;49.296;11.348;2023-06-04T08:43:02;37.16;10.55
8412;HTU21D;4243;49.296;11.348;2023-06-04T08:45:33;24.90;99.90
8412;HTU21D;4243;49.296;11.348;2023-06-04T08:45:33;36.86;10.08
8412;HTU21D;4243;49.296;11.348;2023-06-04T08:48:09;25.40;99.90
8412;HTU21D;4243;49.296;11.348;2023-06-04T08:48:10;37.51;8.63
8412;HTU21D;4243;49.296;11.348;2023-06-04T08:50:42;25.40;99.90
8412;HTU21D;4243;49.296;11.348;2023-06-04T08:50:44;37.79;8.82
8412;HTU21D;4243;49.296;11.348;2023-06-04T08:53:15;25.40;99.90
8412;HTU21D;4243;49.296;11.348;2023-06-04T08:53:15;38.05;9.14
8412;HTU21D;4243;49.296;11.348;2023-06-04T08:55:43;38.06;8.73
8412;HTU21D;4243;49.296;11.348;2023-06-04T08:58:11;25.30;99.90
8412;HTU21D;4243;49.296;11.348;2023-06-04T08:58:12;38.63;7.83
8412;HTU21D;4243;49.296;11.348;2023-06-04T09:00:42;39.25;7.47
8412;HTU21D;4243;49.296;11.348;2023-06-04T09:00:42;25.70;99.90
8412;HTU21D;4243;49.296;11.348;2023-06-04T09:03:10;25.60;99.90
8412;HTU21D;4243;49.296;11.348;2023-06-04T09:03:13;39.47;7.02
8412;HTU21D;4243;49.296;11.348;2023-06-04T09:05:42;24.80;99.90
8412;HTU21D;4243;49.296;11.348;2023-06-04T09:05:44;39.50;7.27
8412;HTU21D;4243;49.296;11.348;2023-06-04T09:08:17;25.00;99.90
8412;HTU21D;4243;49.296;11.348;2023-06-04T09:08:17;39.69;6.54
8412;HTU21D;4243;49.296;11.348;2023-06-04T09:10:46;25.30;99.90
8412;HTU21D;4243;49.296;11.348;2023-06-04T09:10:48;40.31;7.22
8412;HTU21D;4243;49.296;11.348;2023-06-04T09:13:19;25.80;99.90
8412;HTU21D;4243;49.296;11.348;2023-06-04T09:13:22;40.97;7.08
8412;HTU21D;4243;49.296;11.348;2023-06-04T09:16:01;25.40;99.90
8412;HTU21D;4243;49.296;11.348;2023-06-04T09:16:02;40.83;6.55
8412;HTU21D;4243;49.296;11.348;2023-06-04T09:18:31;39.92;7.22
8412;HTU21D;4243;49.296;11.348;2023-06-04T09:21:06;25.70;99.90
8412;HTU21D;4243;49.296;11.348;2023-06-04T09:21:07;39.33;7.82
8412;HTU21D;4243;49.296;11.348;2023-06-04T09:23:37;25.50;99.90
8412;HTU21D;4243;49.296;11.348;2023-06-04T09:23:44;39.28;7.67
8412;HTU21D;4243;49.296;11.348;2023-06-04T09:26:12;39.37;7.86
8412;HTU21D;4243;49.296;11.348;2023-06-04T09:28:42;38.97;8.72
8412;HTU21D;4243;49.296;11.348;2023-06-04T09:31:14;26.20;99.90
8412;HTU21D;4243;49.296;11.348;2023-06-04T09:31:15;39.53;8.93
8412;HTU21D;4243;49.296;11.348;2023-06-04T09:33:47;26.10;99.90
8412;HTU21D;4243;49.296;11.348;2023-06-04T09:33:48;39.93;7.85
8412;HTU21D;4243;49.296;11.348;2023-06-04T09:36:16;26.20;99.90
8412;HTU21D;4243;49.296;11.348;2023-06-04T09:36:17;39.87;7.05
8412;HTU21D;4243;49.296;11.348;2023-06-04T09:38:45;26.30;99.90
8412;HTU21D;4243;49.296;11.348;2023-06-04T09:38:46;40.29;6.76
8412;HTU21D;4243;49.296;11.348;2023-06-04T09:41:17;26.60;99.90
8412;HTU21D;4243;49.296;11.348;2023-06-04T09:41:17;40.55;7.75
8412;HTU21D;4243;49.296;11.348;2023-06-04T09:44:02;40.73;6.86
8412;HTU21D;4243;49.296;11.348;2023-06-04T09:44:02;26.10;99.90
8412;HTU21D;4243;49.296;11.348;2023-06-04T09:46:30;40.17;5.92
8412;HTU21D;4243;49.296;11.348;2023-06-04T09:46:30;25.60;99.90
8412;HTU21D;4243;49.296;11.348;2023-06-04T09:49:05;39.86;8.53
8412;HTU21D;4243;49.296;11.348;2023-06-04T09:49:05;25.80;99.90
8412;HTU21D;4243;49.296;11.348;2023-06-04T09:51:35;39.39;7.29
8412;HTU21D;4243;49.296;11.348;2023-06-04T09:54:14;39.14;6.57
8412;HTU21D;4243;49.296;11.348;2023-06-04T09:56:42;39.42;7.48
8412;HTU21D;4243;49.296;11.348;2023-06-04T09:56:42;25.00;99.90
8412;HTU21D;4243;49.296;11.348;2023-06-04T09:59:09;25.30;99.90
8412;HTU21D;4243;49.296;11.348;2023-06-04T09:59:10;39.32;6.34
8412;HTU21D;4243;49.296;11.348;2023-06-04T10:01:40;38.37;7.90
8412;HTU21D;4243;49.296;11.348;2023-06-04T10:01:40;25.30;99.90
8412;HTU21D;4243;49.296;11.348;2023-06-04T10:04:09;25.20;99.90
8412;HTU21D;4243;49.296;11.348;2023-06-04T10:04:09;37.69;8.21
8412;HTU21D;4243;49.296;11.348;2023-06-04T10:06:39;25.20;99.90
8412;HTU21D;4243;49.296;11.348;2023-06-04T10:06:41;37.92;8.45
8412;HTU21D;4243;49.296;11.348;2023-06-04T10:09:08;25.60;99.90
8412;HTU21D;4243;49.296;11.348;2023-06-04T10:09:09;37.22;8.88
8412;HTU21D;4243;49.296;11.348;2023-06-04T10:11:48;26.10;99.90
8412;HTU21D;4243;49.296;11.348;2023-06-04T10:11:52;37.79;10.26
8412;HTU21D;4243;49.296;11.348;2023-06-04T10:14:30;26.60;99.90
8412;HTU21D;4243;49.296;11.348;2023-06-04T10:14:36;38.11;8.08
8412;HTU21D;4243;49.296;11.348;2023-06-04T10:17:08;26.90;99.90
8412;HTU21D;4243;49.296;11.348;2023-06-04T10:17:11;38.77;8.21
8412;HTU21D;4243;49.296;11.348;2023-06-04T10:19:43;26.80;99.90
8412;HTU21D;4243;49.296;11.348;2023-06-04T10:19:44;39.18;7.32
8412;HTU21D;4243;49.296;11.348;2023-06-04T10:22:11;26.60;99.90
8412;HTU21D;4243;49.296;11.348;2023-06-04T10:22:12;39.38;6.35
8412;HTU21D;4243;49.296;11.348;2023-06-04T10:24:40;39.02;6.90
8412;HTU21D;4243;49.296;11.348;2023-06-04T10:27:07;39.45;8.18
8412;HTU21D;4243;49.296;11.348;2023-06-04T10:29:39;40.02;8.40
8412;HTU21D;4243;49.296;11.348;2023-06-04T10:29:39;27.00;99.90
8412;HTU21D;4243;49.296;11.348;2023-06-04T10:32:07;26.10;99.90
8412;HTU21D;4243;49.296;11.348;2023-06-04T10:32:07;40.18;5.05
8412;HTU21D;4243;49.296;11.348;2023-06-04T10:34:35;40.09;5.47
8412;HTU21D;4243;49.296;11.348;2023-06-04T10:37:03;40.42;8.66
8412;HTU21D;4243;49.296;11.348;2023-06-04T10:39:31;26.90;99.90
8412;HTU21D;4243;49.296;11.348;2023-06-04T10:39:32;40.81;6.13
8412;HTU21D;4243;49.296;11.348;2023-06-04T10:42:00;39.69;7.18
8412;HTU21D;4243;49.296;11.348;2023-06-04T10:44:31;39.70;7.66
8412;HTU21D;4243;49.296;11.348;2023-06-04T10:46:59;26.70;99.90
8412;HTU21D;4243;49.296;11.348;2023-06-04T10:46:59;39.93;8.23
8412;HTU21D;4243;49.296;11.348;2023-06-04T10:49:30;39.57;6.65
8412;HTU21D;4243;49.296;11.348;2023-06-04T10:49:30;27.10;99.90
8412;HTU21D;4243;49.296;11.348;2023-06-04T10:52:10;27.30;99.90
8412;HTU21D;4243;49.296;11.348;2023-06-04T10:52:10;39.62;8.44
8412;HTU21D;4243;49.296;11.348;2023-06-04T10:54:38;27.20;99.90
8412;HTU21D;4243;49.296;11.348;2023-06-04T10:54:38;40.17;5.99
8412;HTU21D;4243;49.296;11.348;2023-06-04T10:57:16;28.00;99.90
8412;HTU21D;4243;49.296;11.348;2023-06-04T10:57:16;39.91;7.63
8412;HTU21D;4243;49.296;11.348;2023-06-04T10:59:57;27.40;99.90
8412;HTU21D;4243;49.296;11.348;2023-06-04T10:59:58;40.87;5.60
8412;HTU21D;4243;49.296;11.348;2023-06-04T11:02:26;27.50;99.90
8412;HTU21D;4243;49.296;11.348;2023-06-04T11:02:26;41.46;4.48
8412;HTU21D;4243;49.296;11.348;2023-06-04T11:05:04;27.60;99.90
8412;HTU21D;4243;49.296;11.348;2023-06-04T11:05:05;41.73;7.11
8412;HTU21D;4243;49.296;11.348;2023-06-04T11:07:42;26.90;99.90
8412;HTU21D;4243;49.296;11.348;2023-06-04T11:07:43;41.30;8.16
8412;HTU21D;4243;49.296;11.348;2023-06-04T11:10:15;26.80;99.90